createdAt,value
2017-05-07T00:00:32.327Z,16.80
2017-05-07T00:03:00.593Z,16.90
2017-05-07T00:05:27.975Z,17.00
2017-05-07T00:07:55.829Z,17.00
2017-05-07T00:10:23.176Z,16.90
2017-05-07T00:12:50.606Z,16.80
2017-05-07T00:15:17.949Z,16.90
2017-05-07T00:17:45.348Z,16.90
2017-05-07T00:20:15.885Z,17.00
2017-05-07T00:22:43.276Z,16.90
2017-05-07T00:25:10.688Z,16.80
2017-05-07T00:27:38.142Z,16.90
2017-05-07T00:30:05.519Z,16.80
2017-05-07T00:32:34.632Z,16.80
2017-05-07T00:35:02.188Z,16.70
2017-05-07T00:37:29.558Z,17.00
2017-05-07T00:39:59.933Z,17.00
2017-05-07T00:42:27.313Z,16.80
2017-05-07T00:44:54.786Z,16.80
2017-05-07T00:47:22.901Z,16.80
2017-05-07T00:49:50.231Z,16.90
2017-05-07T00:52:17.613Z,16.80
2017-05-07T00:54:44.963Z,16.70
2017-05-07T00:57:12.462Z,16.80
2017-05-07T00:59:39.829Z,16.90
2017-05-07T01:02:07.922Z,16.90
2017-05-07T01:04:35.513Z,16.80
2017-05-07T01:07:02.868Z,16.80
2017-05-07T01:09:30.246Z,16.80
2017-05-07T01:11:57.614Z,16.70
2017-05-07T01:14:26.106Z,16.70
2017-05-07T01:16:54.354Z,16.60
2017-05-07T01:19:21.887Z,16.70
2017-05-07T01:21:49.381Z,16.60
2017-05-07T01:24:16.775Z,16.50
2017-05-07T01:26:44.228Z,16.50
2017-05-07T01:29:11.725Z,16.70
2017-05-07T01:31:39.479Z,16.50
2017-05-07T01:34:06.838Z,16.50
2017-05-07T01:36:34.252Z,16.60
2017-05-07T01:39:01.660Z,16.60
2017-05-07T01:41:30.262Z,16.70
2017-05-07T01:43:57.809Z,16.70
2017-05-07T01:46:25.238Z,16.60
2017-05-07T01:48:52.843Z,16.60
2017-05-07T01:51:20.214Z,16.50
2017-05-07T01:53:47.676Z,16.50
2017-05-07T01:56:15.232Z,16.50
2017-05-07T01:58:42.665Z,16.50
2017-05-07T02:01:10.796Z,16.40
2017-05-07T02:03:38.152Z,16.40
2017-05-07T02:06:05.514Z,16.50
2017-05-07T02:08:32.861Z,16.40
2017-05-07T02:11:02.026Z,16.40
2017-05-07T02:13:29.400Z,16.40
2017-05-07T02:15:56.786Z,16.30
2017-05-07T02:18:24.288Z,16.40
2017-05-07T02:20:52.465Z,16.40
2017-05-07T02:23:20.541Z,16.40
2017-05-07T02:25:47.941Z,16.40
2017-05-07T02:28:16.597Z,16.40
2017-05-07T02:30:44.088Z,16.50
2017-05-07T02:33:12.246Z,16.30
2017-05-07T02:35:39.851Z,16.30
2017-05-07T02:38:08.098Z,16.30
2017-05-07T02:40:35.572Z,16.30
2017-05-07T02:43:03.963Z,16.30
2017-05-07T02:45:32.166Z,16.30
2017-05-07T02:47:59.799Z,16.20
2017-05-07T02:50:27.131Z,16.20
2017-05-07T02:52:54.582Z,16.20
2017-05-07T02:55:22.121Z,16.10
2017-05-07T02:57:49.594Z,16.30
2017-05-07T03:00:16.954Z,16.40
2017-05-07T03:02:46.337Z,16.30
2017-05-07T03:05:14.514Z,16.20
2017-05-07T03:07:42.156Z,16.30
2017-05-07T03:10:09.496Z,16.20
2017-05-07T03:12:36.878Z,16.30
2017-05-07T03:15:04.727Z,16.30
2017-05-07T03:17:32.247Z,16.40
2017-05-07T03:20:00.325Z,16.30
2017-05-07T03:22:28.735Z,16.30
2017-05-07T03:24:56.146Z,16.10
2017-05-07T03:27:24.277Z,15.90
2017-05-07T03:29:51.739Z,15.80
2017-05-07T03:32:19.165Z,15.80
2017-05-07T03:34:46.668Z,15.90
2017-05-07T03:37:15.058Z,16.00
2017-05-07T03:39:43.277Z,15.70
2017-05-07T03:42:10.675Z,15.70
2017-05-07T03:44:38.037Z,15.50
2017-05-07T03:47:06.425Z,15.30
2017-05-07T03:49:33.849Z,15.40
2017-05-07T03:52:01.502Z,15.50
2017-05-07T03:54:28.939Z,15.40
2017-05-07T03:56:56.366Z,15.20
2017-05-07T03:59:25.108Z,15.10
2017-05-07T04:01:52.556Z,15.10
2017-05-07T04:04:20.024Z,15.30
2017-05-07T04:06:47.391Z,15.20
2017-05-07T04:09:15.649Z,15.20
2017-05-07T04:11:43.027Z,15.20
2017-05-07T04:14:33.038Z,15.20
2017-05-07T04:17:00.467Z,15.10
2017-05-07T04:19:27.877Z,15.10
2017-05-07T04:21:55.302Z,14.90
2017-05-07T04:24:24.215Z,15.00
2017-05-07T04:26:51.618Z,15.00
2017-05-07T04:29:19.546Z,14.80
2017-05-07T04:31:47.900Z,14.90
2017-05-07T04:34:15.991Z,15.00
2017-05-07T04:36:43.390Z,14.90
2017-05-07T04:39:10.791Z,15.00
2017-05-07T04:41:38.160Z,15.00
2017-05-07T04:44:05.544Z,15.30
2017-05-07T04:46:33.020Z,15.10
2017-05-07T04:49:02.154Z,15.10
2017-05-07T04:51:29.517Z,15.10
2017-05-07T04:53:56.964Z,15.00
2017-05-07T04:56:24.531Z,14.90
2017-05-07T04:58:51.919Z,14.90
2017-05-07T05:01:20.267Z,14.80
2017-05-07T05:03:47.654Z,14.80
2017-05-07T05:06:15.080Z,14.80
2017-05-07T05:08:42.436Z,14.70
2017-05-07T05:11:09.865Z,14.80
2017-05-07T05:13:37.232Z,14.80
2017-05-07T05:16:04.661Z,14.80
2017-05-07T05:18:33.087Z,14.90
2017-05-07T05:21:11.017Z,14.90
2017-05-07T05:24:15.133Z,14.80
2017-05-07T05:26:46.245Z,15.00
2017-05-07T05:32:18.310Z,14.80
2017-05-07T05:34:45.703Z,14.80
2017-05-07T05:37:13.530Z,14.90
2017-05-07T05:39:40.924Z,14.90
2017-05-07T05:42:08.493Z,15.00
2017-05-07T05:44:42.932Z,15.10
2017-05-07T05:47:11.118Z,15.30
2017-05-07T05:49:39.295Z,15.30
2017-05-07T05:52:07.179Z,15.50
2017-05-07T05:54:34.567Z,15.60
2017-05-07T05:57:02.063Z,15.70
2017-05-07T05:59:30.508Z,15.80
2017-05-07T06:01:57.898Z,15.80
2017-05-07T06:04:26.650Z,15.90
2017-05-07T06:06:54.114Z,16.20
2017-05-07T06:09:21.539Z,16.30
2017-05-07T06:11:49.215Z,16.30
2017-05-07T06:14:16.725Z,16.20
2017-05-07T06:16:44.443Z,16.20
2017-05-07T06:19:12.100Z,16.20
2017-05-07T06:21:39.532Z,16.30
2017-05-07T06:24:07.220Z,16.10
2017-05-07T06:26:34.689Z,15.90
2017-05-07T06:29:02.904Z,15.80
2017-05-07T06:31:30.447Z,16.10
2017-05-07T06:33:58.082Z,16.20
2017-05-07T06:36:25.571Z,16.40
2017-05-07T06:38:53.019Z,16.50
2017-05-07T06:41:20.416Z,16.60
2017-05-07T06:43:47.874Z,16.70
2017-05-07T06:46:15.282Z,17.00
2017-05-07T06:48:43.652Z,16.90
2017-05-07T06:51:11.945Z,17.00
2017-05-07T06:53:39.338Z,16.90
2017-05-07T06:56:06.761Z,16.80
2017-05-07T06:58:34.916Z,16.80
2017-05-07T07:01:02.584Z,17.00
2017-05-07T07:03:30.954Z,17.30
2017-05-07T07:05:59.178Z,17.20
2017-05-07T07:08:27.654Z,17.20
2017-05-07T07:10:55.073Z,17.30
2017-05-07T07:13:23.295Z,17.40
2017-05-07T07:15:50.745Z,17.30
2017-05-07T07:18:18.238Z,17.20
2017-05-07T07:20:45.656Z,17.20
2017-05-07T07:23:14.174Z,17.10
2017-05-07T07:25:41.544Z,17.40
2017-05-07T07:28:09.716Z,17.70
2017-05-07T07:30:37.150Z,18.00
2017-05-07T07:33:06.692Z,18.10
2017-05-07T07:35:34.978Z,18.00
2017-05-07T07:38:02.421Z,18.10
2017-05-07T07:40:30.778Z,17.70
2017-05-07T07:42:59.069Z,17.50
2017-05-07T07:45:28.015Z,17.50
2017-05-07T07:47:56.329Z,17.70
2017-05-07T07:50:23.898Z,17.90
2017-05-07T07:52:52.109Z,17.80
2017-05-07T07:55:19.565Z,17.90
2017-05-07T07:57:47.023Z,18.20
2017-05-07T08:00:14.936Z,18.10
2017-05-07T08:02:42.413Z,18.10
2017-05-07T08:05:10.651Z,18.30
2017-05-07T08:07:38.189Z,18.30
2017-05-07T08:10:05.994Z,18.40
2017-05-07T08:12:33.765Z,18.30
2017-05-07T08:15:03.238Z,18.20
2017-05-07T08:17:30.917Z,18.30
2017-05-07T08:19:58.382Z,18.50
2017-05-07T08:22:28.189Z,18.30
2017-05-07T08:24:56.112Z,18.50
2017-05-07T08:27:24.382Z,18.60
2017-05-07T08:29:52.093Z,18.90
2017-05-07T08:32:19.721Z,19.20
2017-05-07T08:34:47.189Z,19.20
2017-05-07T08:37:20.598Z,19.60
2017-05-07T08:39:49.042Z,19.80
2017-05-07T08:42:16.606Z,19.30
2017-05-07T08:44:45.306Z,19.00
2017-05-07T08:47:12.881Z,19.30
2017-05-07T08:49:40.438Z,19.60
2017-05-07T08:52:07.951Z,19.90
2017-05-07T08:54:35.632Z,19.80
2017-05-07T08:57:03.038Z,21.00
2017-05-07T08:59:31.097Z,21.60
2017-05-07T09:01:58.517Z,20.90
2017-05-07T09:04:25.958Z,20.30
2017-05-07T09:06:53.496Z,23.00
2017-05-07T09:09:21.712Z,22.00
2017-05-07T09:12:05.364Z,22.50
2017-05-07T09:14:49.439Z,22.70
2017-05-07T09:17:49.707Z,22.20
2017-05-07T09:20:32.698Z,21.00
2017-05-07T09:23:00.754Z,20.40
2017-05-07T09:25:28.954Z,25.90
2017-05-07T09:27:56.513Z,24.00
2017-05-07T09:30:25.149Z,22.30
2017-05-07T09:32:53.224Z,28.40
2017-05-07T09:35:20.781Z,30.10
2017-05-07T09:37:49.352Z,28.10
2017-05-07T09:40:17.129Z,25.70
2017-05-07T09:42:44.883Z,23.60
2017-05-07T09:45:13.155Z,22.30
2017-05-07T09:47:42.386Z,22.90
2017-05-07T09:50:10.620Z,23.00
2017-05-07T09:52:38.186Z,24.40
2017-05-07T09:55:06.481Z,22.90
2017-05-07T09:57:34.718Z,23.40
2017-05-07T10:00:02.819Z,26.50
2017-05-07T10:02:31.044Z,24.90
2017-05-07T10:04:58.749Z,24.20
2017-05-07T10:07:26.666Z,25.80
2017-05-07T10:09:55.287Z,24.10
2017-05-07T10:12:23.052Z,23.00
2017-05-07T10:14:50.600Z,23.30
2017-05-07T10:17:18.180Z,23.20
2017-05-07T10:19:45.835Z,22.40
2017-05-07T10:22:13.403Z,22.70
2017-05-07T10:24:41.041Z,22.00
2017-05-07T10:27:09.770Z,22.20
2017-05-07T10:29:38.148Z,22.10
2017-05-07T10:32:06.648Z,21.40
2017-05-07T10:34:34.499Z,21.50
2017-05-07T10:37:02.742Z,21.30
2017-05-07T10:39:30.253Z,21.00
2017-05-07T10:41:57.929Z,21.40
2017-05-07T10:44:25.458Z,21.70
2017-05-07T10:46:53.757Z,21.40
2017-05-07T10:49:21.279Z,21.60
2017-05-07T10:51:48.985Z,22.40
2017-05-07T10:54:31.382Z,24.40
2017-05-07T10:56:58.939Z,25.40
2017-05-07T10:59:27.513Z,24.10
2017-05-07T11:01:56.921Z,23.10
2017-05-07T11:04:24.644Z,22.60
2017-05-07T11:06:52.188Z,22.40
2017-05-07T11:09:20.903Z,22.60
2017-05-07T11:11:49.173Z,27.20
2017-05-07T11:14:17.039Z,33.10
2017-05-07T11:16:44.573Z,34.90
2017-05-07T11:19:12.703Z,36.60
2017-05-07T11:21:40.621Z,31.70
2017-05-07T11:24:08.133Z,32.30
2017-05-07T11:26:35.679Z,33.90
2017-05-07T11:29:04.200Z,36.10
2017-05-07T11:31:33.045Z,38.10
2017-05-07T11:34:00.684Z,33.00
2017-05-07T11:36:29.106Z,33.90
2017-05-07T11:38:59.991Z,34.40
2017-05-07T11:41:27.986Z,35.30
2017-05-07T11:43:55.687Z,35.70
2017-05-07T11:46:23.442Z,37.20
2017-05-07T11:48:51.007Z,34.00
2017-05-07T11:51:18.586Z,29.20
2017-05-07T11:53:46.093Z,24.80
2017-05-07T11:56:15.210Z,22.10
